createdAt,value
2018-03-26T00:02:03.921Z,64.43
2018-03-26T00:04:31.524Z,68.43
2018-03-26T00:07:00.588Z,66.57
2018-03-26T00:09:28.146Z,68.90
2018-03-26T00:11:55.797Z,64.97
2018-03-26T00:14:23.394Z,60.07
2018-03-26T00:16:50.948Z,58.90
2018-03-26T00:19:18.530Z,63.53
2018-03-26T00:21:46.176Z,55.97
2018-03-26T00:24:13.738Z,56.53
2018-03-26T00:26:41.334Z,51.23
2018-03-26T00:29:09.025Z,48.40
2018-03-26T00:31:36.586Z,51.90
2018-03-26T00:34:04.166Z,44.47
2018-03-26T00:36:31.785Z,50.63
2018-03-26T00:38:59.334Z,51.03
2018-03-26T00:41:26.917Z,54.93
2018-03-26T00:43:54.632Z,52.67
2018-03-26T00:46:22.994Z,51.87
2018-03-26T00:48:52.097Z,53.30
2018-03-26T00:51:19.717Z,54.17
2018-03-26T00:53:47.985Z,49.10
2018-03-26T00:56:15.562Z,50.30
2018-03-26T00:58:43.117Z,46.33
2018-03-26T01:01:10.673Z,48.77
2018-03-26T01:03:38.255Z,57.73
2018-03-26T01:06:05.806Z,44.50
2018-03-26T01:08:33.420Z,49.20
2018-03-26T01:11:01.304Z,55.77
2018-03-26T01:13:28.889Z,54.47
2018-03-26T01:15:56.439Z,57.30
2018-03-26T01:18:24.034Z,58.17
2018-03-26T01:20:51.581Z,52.73
2018-03-26T01:23:19.134Z,56.83
2018-03-26T01:25:46.782Z,51.37
2018-03-26T01:28:14.366Z,57.13
2018-03-26T01:30:42.688Z,55.67
2018-03-26T01:33:10.266Z,52.30
2018-03-26T01:35:37.813Z,53.83
2018-03-26T01:38:05.363Z,54.07
2018-03-26T01:40:32.941Z,53.63
2018-03-26T01:43:00.485Z,53.97
2018-03-26T01:45:28.133Z,56.83
2018-03-26T01:47:55.742Z,54.83
2018-03-26T01:50:24.813Z,52.27
2018-03-26T01:52:52.361Z,52.43
2018-03-26T01:55:20.017Z,48.93
2018-03-26T01:57:47.569Z,54.40
2018-03-26T02:00:15.337Z,55.10
2018-03-26T02:02:42.917Z,54.20
2018-03-26T02:05:10.469Z,49.73
2018-03-26T02:07:38.013Z,46.80
2018-03-26T02:10:05.605Z,45.00
2018-03-26T02:12:33.153Z,48.30
2018-03-26T02:15:00.714Z,55.67
2018-03-26T02:17:28.301Z,47.37
2018-03-26T02:19:55.853Z,55.27
2018-03-26T02:22:24.170Z,54.00
2018-03-26T02:24:51.755Z,55.97
2018-03-26T02:27:19.603Z,57.13
2018-03-26T02:29:47.213Z,53.77
2018-03-26T02:32:14.800Z,62.40
2018-03-26T02:34:42.351Z,57.80
2018-03-26T02:37:09.903Z,62.97
2018-03-26T02:39:38.253Z,61.43
2018-03-26T02:42:05.810Z,63.57
2018-03-26T02:44:33.357Z,59.30
2018-03-26T02:47:01.141Z,71.77
2018-03-26T02:49:28.691Z,61.20
2018-03-26T02:51:56.245Z,60.83
2018-03-26T02:54:24.078Z,61.40
2018-03-26T02:56:51.633Z,56.83
2018-03-26T02:59:19.182Z,61.67
2018-03-26T03:01:46.778Z,55.73
2018-03-26T03:04:14.330Z,59.00
2018-03-26T03:06:41.893Z,58.53
2018-03-26T03:09:09.537Z,57.83
2018-03-26T03:11:37.085Z,64.40
2018-03-26T03:14:04.641Z,69.10
2018-03-26T03:16:32.239Z,55.70
2018-03-26T03:18:59.789Z,55.37
2018-03-26T03:21:27.342Z,54.30
2018-03-26T03:23:54.922Z,54.37
2018-03-26T03:26:22.482Z,59.43
2018-03-26T03:28:50.095Z,59.27
2018-03-26T03:31:17.821Z,53.57
2018-03-26T03:33:46.134Z,54.97
2018-03-26T03:36:13.688Z,58.50
2018-03-26T03:38:41.282Z,77.17
2018-03-26T03:41:08.833Z,77.23
2018-03-26T03:43:36.381Z,72.17
2018-03-26T03:46:03.981Z,69.43
2018-03-26T03:48:32.393Z,69.00
2018-03-26T03:50:59.948Z,67.87
2018-03-26T03:53:27.526Z,61.80
2018-03-26T03:55:55.388Z,60.13
2018-03-26T03:58:22.944Z,60.70
2018-03-26T04:00:50.538Z,58.17
2018-03-26T04:03:18.206Z,57.60
2018-03-26T04:05:45.749Z,57.23
2018-03-26T04:08:13.359Z,59.00
2018-03-26T04:10:40.965Z,62.93
2018-03-26T04:13:08.519Z,59.00
2018-03-26T04:15:36.264Z,64.03
2018-03-26T04:18:03.925Z,61.23
2018-03-26T04:20:31.687Z,70.03
2018-03-26T04:22:59.284Z,70.33
2018-03-26T04:25:26.838Z,70.30
2018-03-26T04:27:54.565Z,72.90
2018-03-26T04:30:22.158Z,69.23
2018-03-26T04:32:49.717Z,69.60
2018-03-26T04:35:17.281Z,83.70
2018-03-26T04:37:44.866Z,69.33
2018-03-26T04:40:13.178Z,77.27
2018-03-26T04:42:40.730Z,75.27
2018-03-26T04:45:08.354Z,74.07
2018-03-26T04:47:36.086Z,68.73
2018-03-26T04:50:03.710Z,90.60
2018-03-26T04:52:31.319Z,81.87
2018-03-26T04:54:58.873Z,81.93
2018-03-26T04:57:26.419Z,76.67
2018-03-26T04:59:54.018Z,95.50
2018-03-26T05:02:22.337Z,109.37
2018-03-26T05:04:49.890Z,231.10
2018-03-26T05:07:17.473Z,114.37
2018-03-26T05:09:45.175Z,121.33
2018-03-26T05:12:12.845Z,119.30
2018-03-26T05:14:40.569Z,113.73
2018-03-26T05:17:08.190Z,131.93
2018-03-26T05:19:35.755Z,132.10
2018-03-26T05:22:03.366Z,116.70
2018-03-26T05:24:31.692Z,131.53
2018-03-26T05:26:59.295Z,137.17
2018-03-26T05:29:27.823Z,128.87
2018-03-26T05:31:55.382Z,111.80
2018-03-26T05:34:22.942Z,114.53
2018-03-26T05:36:50.568Z,136.03
2018-03-26T05:39:18.896Z,200.80
2018-03-26T05:41:46.462Z,160.40
2018-03-26T05:44:14.057Z,172.60
2018-03-26T05:46:41.610Z,165.37
2018-03-26T05:49:09.921Z,156.80
2018-03-26T05:51:37.798Z,152.47
2018-03-26T05:54:05.377Z,197.30
2018-03-26T05:56:32.945Z,223.10
2018-03-26T05:59:00.600Z,336.90
2018-03-26T06:01:28.293Z,292.27
2018-03-26T06:03:55.866Z,289.33
2018-03-26T06:06:23.526Z,331.50
2018-03-26T06:08:51.099Z,335.10
2018-03-26T06:11:18.657Z,255.77
2018-03-26T06:13:46.260Z,219.07
2018-03-26T06:16:14.783Z,206.63
2018-03-26T06:18:42.638Z,160.63
2018-03-26T06:21:11.006Z,158.90
2018-03-26T06:23:38.593Z,183.13
2018-03-26T06:26:06.173Z,200.03
2018-03-26T06:28:33.914Z,242.77
2018-03-26T06:31:01.507Z,218.77
2018-03-26T06:33:29.068Z,170.83
2018-03-26T06:35:56.669Z,152.43
2018-03-26T06:38:41.666Z,164.37
2018-03-26T06:41:09.410Z,168.53
2018-03-26T06:43:36.962Z,151.30
2018-03-26T06:46:04.525Z,155.53
2018-03-26T06:48:32.123Z,133.27
2018-03-26T06:50:59.678Z,138.27
2018-03-26T06:53:27.538Z,154.00
2018-03-26T06:55:55.178Z,141.50
2018-03-26T06:58:22.738Z,177.13
2018-03-26T07:00:50.294Z,165.37
2018-03-26T07:03:17.892Z,165.60
2018-03-26T07:05:45.446Z,163.70
2018-03-26T07:08:12.993Z,147.17
2018-03-26T07:10:40.647Z,118.23
2018-03-26T07:13:08.194Z,154.13
2018-03-26T07:15:35.752Z,156.47
2018-03-26T07:18:03.358Z,160.10
2018-03-26T07:20:31.081Z,150.63
2018-03-26T07:22:58.782Z,128.87
2018-03-26T07:25:26.376Z,162.73
2018-03-26T07:27:53.928Z,155.90
2018-03-26T07:30:22.321Z,127.43
2018-03-26T07:32:50.002Z,175.13
2018-03-26T07:35:17.550Z,151.00
2018-03-26T07:37:45.128Z,138.83
2018-03-26T07:40:12.753Z,140.57
2018-03-26T07:42:40.852Z,134.70
2018-03-26T07:45:08.409Z,126.40
2018-03-26T07:47:36.013Z,125.77
2018-03-26T07:50:03.823Z,142.20
2018-03-26T07:52:31.567Z,149.37
2018-03-26T07:54:59.464Z,136.97
2018-03-26T07:57:27.036Z,121.33
2018-03-26T07:59:54.606Z,101.63
2018-03-26T08:02:22.956Z,113.53
2018-03-26T08:04:50.513Z,116.73
2018-03-26T08:07:18.079Z,106.33
2018-03-26T08:09:45.676Z,108.73
2018-03-26T08:12:13.414Z,97.57
2018-03-26T08:14:40.982Z,84.07
2018-03-26T08:17:08.742Z,88.57
2018-03-26T08:19:36.289Z,99.10
2018-03-26T08:22:03.909Z,84.90
2018-03-26T08:24:31.503Z,75.67
2018-03-26T08:26:59.046Z,87.37
2018-03-26T08:29:26.691Z,70.83
2018-03-26T08:31:54.270Z,70.07
2018-03-26T08:34:21.832Z,63.50
2018-03-26T08:36:49.590Z,61.60
2018-03-26T08:39:17.245Z,71.53
2018-03-26T08:41:44.795Z,84.67
2018-03-26T08:44:12.538Z,78.87
2018-03-26T08:46:40.609Z,79.47
2018-03-26T08:49:08.234Z,86.57
2018-03-26T08:51:35.783Z,101.80
2018-03-26T08:54:03.373Z,107.17
2018-03-26T08:56:31.307Z,104.60
2018-03-26T08:58:58.861Z,108.33
2018-03-26T09:01:26.446Z,120.90
2018-03-26T09:03:54.885Z,107.57
2018-03-26T09:06:22.460Z,110.23
2018-03-26T09:08:50.057Z,122.63
2018-03-26T09:11:18.371Z,142.17
2018-03-26T09:13:45.934Z,122.87
2018-03-26T09:16:13.526Z,88.17
2018-03-26T09:18:41.074Z,89.73
2018-03-26T09:21:08.934Z,95.83
2018-03-26T09:23:36.797Z,90.20
2018-03-26T09:26:04.459Z,88.57
2018-03-26T09:28:31.989Z,76.33
2018-03-26T09:30:59.802Z,67.27
2018-03-26T09:33:27.350Z,127.60
2018-03-26T09:35:55.392Z,107.97
2018-03-26T09:38:23.002Z,54.93
2018-03-26T09:40:51.661Z,82.53
2018-03-26T09:43:19.548Z,75.57
2018-03-26T09:45:48.390Z,112.87
2018-03-26T09:48:16.087Z,338.80
2018-03-26T09:50:44.406Z,70.50
2018-03-26T09:53:12.298Z,58.43
2018-03-26T09:55:39.855Z,56.33
2018-03-26T09:58:07.689Z,57.70
2018-03-26T10:00:41.147Z,61.17
2018-03-26T10:03:08.733Z,60.57
2018-03-26T10:05:36.294Z,51.93
2018-03-26T10:08:04.953Z,43.93
2018-03-26T10:10:33.267Z,40.47
2018-03-26T10:13:01.281Z,39.40
2018-03-26T10:15:29.025Z,45.07
2018-03-26T10:17:56.922Z,59.37
2018-03-26T10:20:25.086Z,37.87
2018-03-26T10:22:52.799Z,36.67
2018-03-26T10:25:20.399Z,30.67
2018-03-26T10:27:48.861Z,33.17
2018-03-26T10:30:16.798Z,35.90
2018-03-26T10:32:44.771Z,27.40
2018-03-26T10:35:12.377Z,38.17
2018-03-26T10:37:40.149Z,31.37
2018-03-26T10:40:07.821Z,31.43
2018-03-26T10:42:35.370Z,38.77
2018-03-26T10:47:35.974Z,25.57
2018-03-26T10:50:03.566Z,32.00
2018-03-26T10:52:31.294Z,36.87
2018-03-26T10:54:59.045Z,27.70
2018-03-26T10:57:26.646Z,24.50
2018-03-26T10:59:54.569Z,26.87
2018-03-26T11:02:22.114Z,20.93
2018-03-26T11:04:50.778Z,17.67
2018-03-26T11:07:18.327Z,17.43
2018-03-26T11:09:46.033Z,19.47
2018-03-26T11:12:13.820Z,23.93
2018-03-26T11:14:41.566Z,23.53
2018-03-26T11:17:09.114Z,23.97
2018-03-26T11:19:37.242Z,24.17
2018-03-26T11:22:06.473Z,23.17
2018-03-26T11:24:34.790Z,32.60
2018-03-26T11:27:02.396Z,24.23
2018-03-26T11:29:30.712Z,21.30
2018-03-26T11:31:58.254Z,27.37
2018-03-26T11:34:26.035Z,28.27
2018-03-26T11:36:53.841Z,24.00
2018-03-26T11:39:22.186Z,22.33
2018-03-26T11:41:49.984Z,22.23
2018-03-26T11:44:17.653Z,21.73
2018-03-26T11:49:20.177Z,22.87
2018-03-26T11:51:48.000Z,24.70
2018-03-26T11:54:16.488Z,41.57
2018-03-26T11:56:44.716Z,61.50
2018-03-26T11:59:12.342Z,90.10
2018-03-26T12:01:40.462Z,51.70
2018-03-26T12:04:08.312Z,44.13
2018-03-26T12:06:36.854Z,63.67
2018-03-26T12:09:05.296Z,66.37
2018-03-26T12:11:32.954Z,68.13
2018-03-26T12:14:00.916Z,149.37
2018-03-26T12:16:28.908Z,57.73
2018-03-26T12:18:56.779Z,55.87
2018-03-26T12:21:24.362Z,42.17
2018-03-26T12:24:03.767Z,47.73
2018-03-26T12:26:31.325Z,46.57
2018-03-26T12:29:12.202Z,51.60
2018-03-26T12:31:40.013Z,51.70
2018-03-26T12:34:19.563Z,51.17
2018-03-26T12:36:47.243Z,72.80
2018-03-26T12:39:15.031Z,53.33
2018-03-26T12:41:43.197Z,44.30
2018-03-26T12:44:11.672Z,51.23
2018-03-26T12:46:44.384Z,42.10
2018-03-26T12:49:11.955Z,59.03
2018-03-26T12:51:51.508Z,62.33
2018-03-26T12:54:19.300Z,41.80
2018-03-26T12:56:46.986Z,38.37
2018-03-26T12:59:14.873Z,44.67
2018-03-26T13:01:55.219Z,41.47
2018-03-26T13:04:23.675Z,86.97
2018-03-26T13:06:51.689Z,55.03
2018-03-26T13:09:19.358Z,82.93
2018-03-26T13:11:47.327Z,52.00
2018-03-26T13:14:15.361Z,44.50
2018-03-26T13:16:42.938Z,50.07
2018-03-26T13:19:10.727Z,46.83
2018-03-26T13:21:38.564Z,42.60
2018-03-26T13:24:07.096Z,66.00
2018-03-26T13:26:34.919Z,105.50
2018-03-26T13:29:03.438Z,105.10
2018-03-26T13:31:31.029Z,57.37
2018-03-26T13:33:58.618Z,52.93
2018-03-26T13:36:26.525Z,40.47
2018-03-26T13:38:54.087Z,38.37
2018-03-26T13:41:22.013Z,62.27
2018-03-26T13:43:49.583Z,77.27
2018-03-26T13:46:17.406Z,42.73
2018-03-26T13:48:46.114Z,35.77
2018-03-26T13:51:14.532Z,35.47
2018-03-26T13:53:42.218Z,36.03
2018-03-26T13:56:09.809Z,37.63
2018-03-26T13:58:37.545Z,45.30
2018-03-26T14:01:05.390Z,203.57
2018-03-26T14:03:33.917Z,272.17
2018-03-26T14:06:01.478Z,72.43
2018-03-26T14:08:40.955Z,47.43
2018-03-26T14:11:20.128Z,83.40
2018-03-26T14:13:59.737Z,73.27
2018-03-26T14:16:39.072Z,96.73
2018-03-26T14:19:06.882Z,45.67
2018-03-26T14:21:34.506Z,47.30
2018-03-26T14:24:02.223Z,78.43
2018-03-26T14:26:30.270Z,94.33
2018-03-26T14:28:58.211Z,50.30
2018-03-26T14:31:25.787Z,38.77
2018-03-26T14:33:53.408Z,39.70
2018-03-26T14:36:21.349Z,61.00
2018-03-26T14:38:48.971Z,104.10
2018-03-26T14:41:16.656Z,66.90
2018-03-26T14:43:44.289Z,75.23
2018-03-26T14:46:11.865Z,53.93
2018-03-26T14:48:40.539Z,42.13
2018-03-26T14:51:08.106Z,39.60
2018-03-26T14:53:35.822Z,45.27
2018-03-26T14:56:03.430Z,83.13
2018-03-26T14:58:31.052Z,129.07
2018-03-26T15:00:58.623Z,141.03
2018-03-26T15:03:26.261Z,364.03
2018-03-26T15:05:54.349Z,236.43
2018-03-26T15:08:22.400Z,425.17
2018-03-26T15:10:50.088Z,313.40
2018-03-26T15:13:17.969Z,153.63
2018-03-26T15:15:45.597Z,117.27
2018-03-26T15:18:13.800Z,67.57
2018-03-26T15:20:43.351Z,47.90
2018-03-26T15:23:11.266Z,73.37
2018-03-26T15:25:39.096Z,80.77
2018-03-26T15:28:06.681Z,116.23
2018-03-26T15:30:34.474Z,76.03
2018-03-26T15:33:02.561Z,77.23
2018-03-26T15:35:30.455Z,141.43
2018-03-26T15:37:58.027Z,68.33
2018-03-26T15:40:25.766Z,60.23
2018-03-26T15:42:53.462Z,590.53
2018-03-26T15:45:21.277Z,391.57
2018-03-26T15:47:49.106Z,202.10
2018-03-26T15:50:17.454Z,212.03
2018-03-26T15:52:45.014Z,203.30
2018-03-26T15:55:12.776Z,140.10
2018-03-26T15:57:40.348Z,133.80
2018-03-26T16:00:07.970Z,132.90
2018-03-26T16:02:41.277Z,166.70
2018-03-26T16:05:09.035Z,194.63
2018-03-26T16:07:36.763Z,409.97
2018-03-26T16:10:05.358Z,449.40
2018-03-26T16:12:32.949Z,387.40
2018-03-26T16:15:00.759Z,296.40
2018-03-26T16:17:29.626Z,279.17
2018-03-26T16:19:57.731Z,171.27
2018-03-26T16:22:26.352Z,95.50
2018-03-26T16:24:54.212Z,118.60
2018-03-26T16:27:21.881Z,131.10
2018-03-26T16:29:49.824Z,133.47
2018-03-26T16:32:18.410Z,92.53
2018-03-26T16:34:46.058Z,121.77
2018-03-26T16:37:13.957Z,194.00
2018-03-26T16:39:41.595Z,129.87
2018-03-26T16:45:13.019Z,265.63
2018-03-26T16:47:40.940Z,159.70
2018-03-26T16:50:08.502Z,144.60
2018-03-26T16:52:36.264Z,151.10
2018-03-26T16:55:03.887Z,273.57
2018-03-26T16:57:32.515Z,264.03
2018-03-26T17:00:00.117Z,424.30
2018-03-26T17:02:27.836Z,443.93
2018-03-26T17:04:55.676Z,398.33
2018-03-26T17:07:23.486Z,351.30
2018-03-26T17:09:51.251Z,289.73
2018-03-26T17:12:19.298Z,324.00
2018-03-26T17:14:46.903Z,320.87
2018-03-26T17:17:14.670Z,291.80
2018-03-26T17:19:43.025Z,277.43
2018-03-26T17:22:10.675Z,256.03
2018-03-26T17:24:38.402Z,270.67
2018-03-26T17:27:06.189Z,284.13
2018-03-26T17:29:33.790Z,273.40
2018-03-26T17:32:02.353Z,248.77
2018-03-26T17:34:30.292Z,286.37
2018-03-26T17:36:58.033Z,286.13
2018-03-26T17:39:25.659Z,318.73
2018-03-26T17:41:53.410Z,316.93
2018-03-26T17:44:21.116Z,320.60
2018-03-26T17:46:48.724Z,355.97
2018-03-26T17:49:16.466Z,353.53
2018-03-26T17:51:44.964Z,343.10
2018-03-26T17:54:12.601Z,338.83
2018-03-26T17:56:40.198Z,277.57
2018-03-26T17:59:07.907Z,265.07
2018-03-26T18:01:35.475Z,261.40
2018-03-26T18:04:03.283Z,274.97
2018-03-26T18:06:30.934Z,267.30
2018-03-26T18:08:58.769Z,301.97
2018-03-26T18:11:26.473Z,324.67
2018-03-26T18:13:54.134Z,327.23
2018-03-26T18:16:22.522Z,293.17
2018-03-26T18:18:50.499Z,269.03
2018-03-26T18:21:19.024Z,262.30
2018-03-26T18:23:46.800Z,263.10
2018-03-26T18:26:14.473Z,253.30
2018-03-26T18:28:42.559Z,242.90
2018-03-26T18:31:10.391Z,243.13
2018-03-26T18:33:37.972Z,251.77
2018-03-26T18:36:05.571Z,260.00
2018-03-26T18:38:33.238Z,266.37
2018-03-26T18:41:00.835Z,233.43
2018-03-26T18:43:28.470Z,314.60
2018-03-26T18:45:56.232Z,320.17
2018-03-26T18:48:24.160Z,331.10
2018-03-26T18:50:52.328Z,333.40
2018-03-26T18:53:20.081Z,298.43
2018-03-26T18:55:48.326Z,298.70
2018-03-26T18:58:16.097Z,265.03
2018-03-26T19:00:43.682Z,253.33
2018-03-26T19:03:11.281Z,219.33
2018-03-26T19:05:38.907Z,235.93
2018-03-26T19:08:07.999Z,244.33
2018-03-26T19:10:35.769Z,244.10
2018-03-26T19:13:03.553Z,232.93
2018-03-26T19:15:31.194Z,235.10
2018-03-26T19:17:59.017Z,225.40
2018-03-26T19:20:27.060Z,186.77
2018-03-26T19:22:54.654Z,168.40
2018-03-26T19:25:22.474Z,182.40
2018-03-26T19:27:50.150Z,199.83
2018-03-26T19:30:17.743Z,233.93
2018-03-26T19:32:45.668Z,184.23
2018-03-26T19:35:13.318Z,157.23
2018-03-26T19:37:41.261Z,188.63
2018-03-26T19:40:09.742Z,178.03
2018-03-26T19:42:38.156Z,241.80
2018-03-26T19:45:06.044Z,280.00
2018-03-26T19:47:33.836Z,251.73
2018-03-26T19:50:01.439Z,295.37
2018-03-26T19:52:29.007Z,247.27
2018-03-26T19:54:56.711Z,245.17
2018-03-26T19:57:24.389Z,223.77
2018-03-26T19:59:52.417Z,204.60
2018-03-26T20:02:20.114Z,183.67
2018-03-26T20:04:48.007Z,187.23
2018-03-26T20:07:16.355Z,187.70
2018-03-26T20:09:44.147Z,255.90
2018-03-26T20:12:12.538Z,208.07
2018-03-26T20:14:40.457Z,218.80
2018-03-26T20:17:08.052Z,175.33
2018-03-26T20:19:36.364Z,229.87
2018-03-26T20:22:03.948Z,210.90
2018-03-26T20:24:31.519Z,161.30
2018-03-26T20:27:00.577Z,164.17
2018-03-26T20:29:28.339Z,306.53
2018-03-26T20:31:56.167Z,324.47
2018-03-26T20:34:24.593Z,294.90
2018-03-26T20:36:53.065Z,259.87
2018-03-26T20:39:20.671Z,244.07
2018-03-26T20:41:48.297Z,308.27
2018-03-26T20:44:15.873Z,285.87
2018-03-26T20:46:44.122Z,277.97
2018-03-26T20:49:11.871Z,236.93
2018-03-26T20:51:39.641Z,204.87
2018-03-26T20:54:07.228Z,205.50
2018-03-26T20:56:35.008Z,184.17
2018-03-26T20:59:03.033Z,145.77
2018-03-26T21:01:30.638Z,132.77
2018-03-26T21:03:59.053Z,158.13
2018-03-26T21:06:26.645Z,129.77
2018-03-26T21:08:54.197Z,138.67
2018-03-26T21:11:21.794Z,154.43
2018-03-26T21:13:50.127Z,160.03
2018-03-26T21:16:17.918Z,158.60
2018-03-26T21:18:45.925Z,185.20
2018-03-26T21:21:13.481Z,174.30
2018-03-26T21:23:41.813Z,175.40
2018-03-26T21:26:09.475Z,181.27
2018-03-26T21:28:37.042Z,176.97
2018-03-26T21:31:05.329Z,166.47
2018-03-26T21:33:33.695Z,196.07
2018-03-26T21:36:03.185Z,180.80
2018-03-26T21:38:30.788Z,171.03
2018-03-26T21:40:59.365Z,158.47
2018-03-26T21:43:26.929Z,182.83
2018-03-26T21:45:55.300Z,174.80
2018-03-26T21:48:23.372Z,184.07
2018-03-26T21:50:50.970Z,176.90
2018-03-26T21:53:18.541Z,173.80
2018-03-26T21:55:46.710Z,173.97
2018-03-26T21:58:14.269Z,163.97
2018-03-26T22:00:41.923Z,168.27
2018-03-26T22:03:09.767Z,149.23
2018-03-26T22:05:37.496Z,164.83
2018-03-26T22:08:05.254Z,156.77
2018-03-26T22:10:33.391Z,161.40
2018-03-26T22:13:01.025Z,157.40
2018-03-26T22:15:28.766Z,147.93
2018-03-26T22:17:56.650Z,149.27
2018-03-26T22:20:24.247Z,144.63
2018-03-26T22:22:52.156Z,132.57
2018-03-26T22:25:20.504Z,125.43
2018-03-26T22:27:48.534Z,130.70
2018-03-26T22:30:16.627Z,136.27
2018-03-26T22:32:44.245Z,115.53
2018-03-26T22:35:11.820Z,88.03
2018-03-26T22:37:39.384Z,82.97
2018-03-26T22:40:07.042Z,92.70
2018-03-26T22:42:34.634Z,96.37
2018-03-26T22:45:02.281Z,95.67
2018-03-26T22:47:30.270Z,100.93
2018-03-26T22:49:57.829Z,98.60
2018-03-26T22:52:25.554Z,108.23
2018-03-26T22:54:53.154Z,98.83
2018-03-26T22:57:20.930Z,108.40
2018-03-26T22:59:48.595Z,98.17
2018-03-26T23:02:16.206Z,103.17
2018-03-26T23:04:44.126Z,102.07
2018-03-26T23:07:12.070Z,109.90
2018-03-26T23:09:39.958Z,105.70
2018-03-26T23:12:07.914Z,106.43
2018-03-26T23:14:35.538Z,109.80
2018-03-26T23:17:03.217Z,116.33
2018-03-26T23:19:31.012Z,107.70
2018-03-26T23:21:58.987Z,92.53
2018-03-26T23:24:26.841Z,87.70
2018-03-26T23:26:54.598Z,96.27
2018-03-26T23:29:22.166Z,88.37
2018-03-26T23:31:49.775Z,78.63
2018-03-26T23:34:17.335Z,71.63
2018-03-26T23:36:45.232Z,76.57
2018-03-26T23:39:12.841Z,76.87
2018-03-26T23:41:40.394Z,74.67
2018-03-26T23:44:08.179Z,73.00
2018-03-26T23:46:35.858Z,72.57
2018-03-26T23:49:03.551Z,70.23
2018-03-26T23:51:31.115Z,75.13
2018-03-26T23:53:58.896Z,71.33
2018-03-26T23:56:26.487Z,72.87
2018-03-26T23:58:54.137Z,73.37
